Time;durP1;ratioP1;P1;durP2;ratioP2;P2;SDS_P1;SDS_P2;PMS_P1;PMS_P2;Temp;Humidity;BMP_temperature;BMP_pressure;BME280_temperature;BME280_humidity;BME280_pressure;Samples;Min_cycle;Max_cycle;Signal;HPM_P1;HPM_P2
2023/10/31 00:00:26;;;;;;;11.05;2.03;;;12.20;99.90;;;;;;5026858;28;20508;-84
2023/10/31 00:02:52;;;;;;;5.68;1.80;;;12.20;99.90;;;;;;5028134;28;20054;-84
2023/10/31 00:05:17;;;;;;;5.43;2.17;;;12.20;99.90;;;;;;5024664;28;20032;-84
2023/10/31 00:07:43;;;;;;;10.82;2.20;;;12.20;99.90;;;;;;5028329;28;20029;-85
2023/10/31 00:10:09;;;;;;;6.07;1.92;;;12.30;99.90;;;;;;5024011;28;20483;-83
2023/10/31 00:12:34;;;;;;;9.60;2.00;;;12.40;99.90;;;;;;5026697;28;20044;-84
2023/10/31 00:15:00;;;;;;;7.20;2.08;;;12.40;99.90;;;;;;5028760;28;20056;-84
2023/10/31 00:17:25;;;;;;;5.53;2.22;;;12.40;99.90;;;;;;5029090;28;20059;-84
2023/10/31 00:19:51;;;;;;;2.67;1.63;;;12.40;99.90;;;;;;5024280;28;20467;-83
2023/10/31 00:22:17;;;;;;;6.10;1.77;;;12.40;99.90;;;;;;5022642;28;20025;-85
2023/10/31 00:24:43;;;;;;;4.35;1.88;;;12.40;99.90;;;;;;5024675;28;20529;-85
2023/10/31 00:27:08;;;;;;;8.85;2.05;;;12.40;99.90;;;;;;5028663;28;20187;-84
2023/10/31 00:29:34;;;;;;;1.85;1.42;;;12.40;99.90;;;;;;5029318;28;20040;-84
2023/10/31 00:32:00;;;;;;;2.95;1.83;;;12.30;99.90;;;;;;5025913;28;20470;-84
2023/10/31 00:34:26;;;;;;;4.22;1.88;;;12.30;99.90;;;;;;5019708;28;20029;-85
2023/10/31 00:36:51;;;;;;;6.18;2.15;;;12.30;99.90;;;;;;5028496;28;20056;-84
2023/10/31 00:39:21;;;;;;;7.10;2.08;;;12.30;99.90;;;;;;5027363;28;20107;-86
2023/10/31 00:41:47;;;;;;;8.68;2.20;;;12.30;99.90;;;;;;5029733;28;20037;-84
2023/10/31 00:44:13;;;;;;;5.40;2.05;;;12.30;99.90;;;;;;5028293;28;20052;-84
2023/10/31 00:46:39;;;;;;;1.95;1.45;;;12.30;99.90;;;;;;5028134;28;20033;-83
2023/10/31 00:49:04;;;;;;;10.55;2.47;;;12.30;99.90;;;;;;5028053;28;20126;-86
2023/10/31 00:51:30;;;;;;;4.72;2.08;;;12.40;99.90;;;;;;5023467;28;20140;-85
2023/10/31 00:53:56;;;;;;;4.90;2.35;;;12.30;99.90;;;;;;5028041;28;20087;-85
2023/10/31 00:56:21;;;;;;;4.72;1.98;;;12.30;99.90;;;;;;5024658;28;20037;-84
2023/10/31 00:58:47;;;;;;;4.05;1.77;;;12.30;99.90;;;;;;5028676;28;20116;-83
2023/10/31 01:01:15;;;;;;;3.35;2.03;;;12.30;99.90;;;;;;5025336;28;20042;-86
2023/10/31 01:03:44;;;;;;;5.47;1.90;;;12.30;99.90;;;;;;5016703;28;20099;-85
2023/10/31 01:06:09;;;;;;;6.82;1.83;;;12.30;99.90;;;;;;5030369;28;20072;-84
2023/10/31 01:08:35;;;;;;;2.45;1.23;;;12.30;99.90;;;;;;5028102;28;20494;-85
2023/10/31 01:11:01;;;;;;;3.13;1.52;;;12.30;99.90;;;;;;5028233;28;20044;-85
2023/10/31 01:13:26;;;;;;;2.55;1.80;;;12.40;99.90;;;;;;5028318;28;20034;-84
2023/10/31 01:15:52;;;;;;;6.25;1.80;;;12.30;99.90;;;;;;5028222;28;20033;-85
2023/10/31 01:18:17;;;;;;;1.70;1.40;;;12.30;99.90;;;;;;5028497;28;20029;-84
2023/10/31 01:20:43;;;;;;;2.15;1.63;;;12.30;99.90;;;;;;5024358;28;20075;-85
2023/10/31 01:23:09;;;;;;;9.18;1.40;;;12.30;99.90;;;;;;5028697;28;20031;-86
2023/10/31 01:25:34;;;;;;;2.60;1.30;;;12.30;99.90;;;;;;5024957;28;20092;-85
2023/10/31 01:28:00;;;;;;;3.47;1.50;;;12.30;99.90;;;;;;5027598;28;20120;-84
2023/10/31 01:30:25;;;;;;;1.90;1.23;;;12.30;99.90;;;;;;5027240;28;20075;-85
2023/10/31 01:32:51;;;;;;;1.17;1.08;;;12.30;99.90;;;;;;5029108;28;20045;-84
2023/10/31 01:35:17;;;;;;;5.57;1.02;;;12.30;99.90;;;;;;5027894;28;20053;-85
2023/10/31 01:37:42;;;;;;;3.13;1.33;;;12.30;99.90;;;;;;5009182;28;20036;-86
2023/10/31 01:40:09;;;;;;;1.38;1.25;;;12.30;99.90;;;;;;5028103;28;20033;-84
2023/10/31 01:42:35;;;;;;;1.77;1.35;;;12.30;99.90;;;;;;5027567;28;20025;-84
2023/10/31 01:45:00;;;;;;;2.28;1.08;;;12.30;99.90;;;;;;5028509;28;20517;-85
2023/10/31 01:47:26;;;;;;;0.93;0.70;;;12.30;99.90;;;;;;5028002;28;20112;-87
2023/10/31 01:49:59;;;;;;;1.95;1.00;;;12.30;99.90;;;;;;5025752;28;20374;-85
2023/10/31 01:52:25;;;;;;;4.20;1.00;;;12.30;99.90;;;;;;5027803;28;20508;-85
2023/10/31 01:54:51;;;;;;;2.50;1.27;;;12.20;99.90;;;;;;5026253;28;20561;-84
2023/10/31 01:57:20;;;;;;;1.40;1.30;;;12.30;99.90;;;;;;5007405;28;20136;-83
2023/10/31 01:59:46;;;;;;;2.70;1.35;;;12.30;99.90;;;;;;5028678;28;20040;-80
2023/10/31 02:02:12;;;;;;;1.88;1.45;;;12.20;99.90;;;;;;5027706;28;20401;-84
2023/10/31 02:04:37;;;;;;;2.95;1.10;;;12.30;99.90;;;;;;5020619;28;20069;-82
2023/10/31 02:07:03;;;;;;;1.30;1.20;;;12.20;99.90;;;;;;5027095;28;20502;-82
2023/10/31 02:09:30;;;;;;;1.90;1.30;;;12.20;99.90;;;;;;5027881;28;20040;-81
2023/10/31 02:11:56;;;;;;;3.15;1.17;;;12.30;99.90;;;;;;5026422;28;20029;-83
2023/10/31 02:14:25;;;;;;;1.40;1.20;;;12.20;99.90;;;;;;5027969;28;20033;-83
2023/10/31 02:16:51;;;;;;;3.33;1.10;;;12.20;99.90;;;;;;5027545;28;20036;-82
2023/10/31 02:19:21;;;;;;;4.47;1.23;;;12.20;99.90;;;;;;5027660;28;20037;-83
2023/10/31 02:21:46;;;;;;;1.67;1.42;;;12.20;99.90;;;;;;5026615;28;20017;-83
2023/10/31 02:24:12;;;;;;;2.05;1.42;;;12.20;99.90;;;;;;5014947;28;20183;-83
2023/10/31 02:26:40;;;;;;;1.10;1.00;;;12.20;99.90;;;;;;5028251;28;20033;-84
2023/10/31 02:29:06;;;;;;;1.17;0.98;;;12.20;99.90;;;;;;5027776;28;20033;-79
2023/10/31 02:31:32;;;;;;;1.42;0.82;;;12.20;99.90;;;;;;5027080;28;20036;-83
2023/10/31 02:33:58;;;;;;;0.90;0.90;;;12.20;99.90;;;;;;5027165;28;20009;-83
2023/10/31 02:36:23;;;;;;;2.55;1.25;;;12.20;99.90;;;;;;5024295;28;20033;-84
2023/10/31 02:38:49;;;;;;;1.77;0.95;;;12.20;99.90;;;;;;5005816;28;20381;-82
2023/10/31 02:41:15;;;;;;;3.42;0.95;;;12.20;99.90;;;;;;5027026;28;20033;-83
2023/10/31 02:43:41;;;;;;;2.53;1.23;;;12.20;99.90;;;;;;5027441;28;20026;-84
2023/10/31 02:46:07;;;;;;;1.85;0.90;;;12.20;99.90;;;;;;5027860;28;20025;-81
2023/10/31 02:48:39;;;;;;;1.55;1.05;;;12.10;99.90;;;;;;5028997;28;20032;-84
2023/10/31 02:51:07;;;;;;;3.13;0.90;;;12.10;99.90;;;;;;5014732;28;20056;-83
2023/10/31 02:53:36;;;;;;;2.88;1.08;;;12.20;99.90;;;;;;5035160;28;20099;-84
2023/10/31 02:56:03;;;;;;;1.05;1.00;;;12.20;99.90;;;;;;5027882;28;20038;-83
2023/10/31 02:58:28;;;;;;;1.15;1.05;;;12.20;99.90;;;;;;5024103;28;20060;-85
2023/10/31 03:00:55;;;;;;;0.90;0.90;;;12.20;99.90;;;;;;5028947;28;20064;-84
2023/10/31 03:03:20;;;;;;;1.45;1.02;;;12.20;99.90;;;;;;5036065;28;20044;-84
2023/10/31 03:05:46;;;;;;;2.78;0.80;;;12.20;99.90;;;;;;5013543;28;20021;-85
2023/10/31 03:08:12;;;;;;;1.77;0.82;;;12.20;99.90;;;;;;5017210;28;20108;-84
2023/10/31 03:10:40;;;;;;;4.15;0.98;;;12.20;99.90;;;;;;5027865;28;20402;-83
2023/10/31 03:13:06;;;;;;;0.80;0.80;;;12.20;99.90;;;;;;5026452;28;20032;-85
2023/10/31 03:15:32;;;;;;;1.27;0.82;;;12.20;99.90;;;;;;5025741;28;20026;-86
2023/10/31 03:18:02;;;;;;;0.77;0.75;;;12.20;99.90;;;;;;5025342;28;20033;-86
2023/10/31 03:20:33;;;;;;;0.60;0.60;;;12.10;99.90;;;;;;5024582;28;20461;-86
2023/10/31 03:22:59;;;;;;;1.40;1.10;;;12.10;99.90;;;;;;5040937;28;20057;-86
2023/10/31 03:25:24;;;;;;;5.20;1.20;;;12.10;99.90;;;;;;5028627;28;20071;-86
2023/10/31 03:27:50;;;;;;;3.03;0.73;;;12.10;99.90;;;;;;5035278;28;20084;-84
2023/10/31 03:30:15;;;;;;;3.55;1.10;;;12.10;99.90;;;;;;5034548;28;20047;-85
2023/10/31 03:32:44;;;;;;;1.38;0.80;;;12.20;99.90;;;;;;5025381;28;20034;-85
2023/10/31 03:35:09;;;;;;;6.22;1.08;;;12.10;99.90;;;;;;5035178;28;20433;-84
2023/10/31 03:37:39;;;;;;;4.63;1.15;;;12.10;99.90;;;;;;5017538;28;20030;-87
2023/10/31 03:40:14;;;;;;;1.00;1.00;;;12.10;99.90;;;;;;5017077;28;20049;-84
2023/10/31 03:42:40;;;;;;;1.30;1.20;;;12.20;99.90;;;;;;5036149;28;20026;-83
2023/10/31 03:45:06;;;;;;;1.90;1.40;;;12.30;99.90;;;;;;5034161;28;20389;-85
2023/10/31 03:47:32;;;;;;;1.65;1.50;;;12.30;99.90;;;;;;5026952;28;20182;-86
2023/10/31 03:49:57;;;;;;;1.58;1.40;;;12.30;99.90;;;;;;5036651;28;20032;-85
2023/10/31 03:52:26;;;;;;;3.40;1.60;;;12.30;99.90;;;;;;5023061;28;20037;-84
2023/10/31 03:54:54;;;;;;;2.75;1.52;;;12.30;99.90;;;;;;5028930;28;20083;-84
2023/10/31 03:57:20;;;;;;;4.75;1.70;;;12.30;99.90;;;;;;5035633;28;20088;-85
2023/10/31 03:59:48;;;;;;;1.42;1.33;;;12.30;99.90;;;;;;5035714;28;20123;-85
2023/10/31 04:02:14;;;;;;;1.65;1.40;;;12.30;99.90;;;;;;5025130;28;20051;-84
2023/10/31 04:04:42;;;;;;;5.28;1.70;;;12.30;99.90;;;;;;5031016;28;20524;-85
2023/10/31 04:07:08;;;;;;;4.07;1.58;;;12.30;99.90;;;;;;5029788;28;20478;-90
2023/10/31 04:09:36;;;;;;;4.05;1.80;;;12.30;99.90;;;;;;5040685;28;20026;-86
2023/10/31 04:12:02;;;;;;;5.63;1.73;;;12.40;99.90;;;;;;5033103;28;20052;-85
2023/10/31 04:14:28;;;;;;;2.40;1.73;;;12.30;99.90;;;;;;5028942;28;20224;-86
2023/10/31 04:16:57;;;;;;;3.70;2.17;;;12.30;99.90;;;;;;5025527;28;20490;-85
2023/10/31 04:19:24;;;;;;;3.90;1.98;;;12.30;99.90;;;;;;5023692;28;20033;-84
2023/10/31 04:21:49;;;;;;;2.63;2.42;;;12.40;99.90;;;;;;5027344;28;20125;-82
2023/10/31 04:24:15;;;;;;;5.03;1.90;;;12.40;99.90;;;;;;5022829;28;20484;-82
2023/10/31 04:26:41;;;;;;;2.15;1.95;;;12.40;99.90;;;;;;5024773;28;20026;-84
2023/10/31 04:29:06;;;;;;;9.82;2.20;;;12.40;99.90;;;;;;5030396;28;20057;-84
2023/10/31 04:31:32;;;;;;;2.42;1.90;;;12.30;99.90;;;;;;5028238;28;20061;-85
2023/10/31 04:33:58;;;;;;;1.77;1.67;;;12.30;99.90;;;;;;5032102;28;20037;-85
2023/10/31 04:36:24;;;;;;;2.15;1.95;;;12.30;99.90;;;;;;5025965;28;20036;-84
2023/10/31 04:38:49;;;;;;;3.85;1.50;;;12.30;99.90;;;;;;5033325;28;20045;-92
2023/10/31 04:41:18;;;;;;;9.13;2.03;;;12.30;99.90;;;;;;5031232;28;20042;-86
2023/10/31 04:43:49;;;;;;;2.22;2.03;;;12.30;99.90;;;;;;5030248;28;20045;-84
2023/10/31 04:46:15;;;;;;;1.92;1.83;;;12.30;99.90;;;;;;5011709;28;20033;-83
2023/10/31 04:48:40;;;;;;;1.50;1.40;;;12.30;99.90;;;;;;5020062;28;20025;-84
2023/10/31 04:51:06;;;;;;;6.57;1.83;;;12.20;99.90;;;;;;5024842;28;20053;-82
2023/10/31 04:53:33;;;;;;;2.08;1.80;;;12.30;99.90;;;;;;5028961;28;20448;-84
2023/10/31 04:55:59;;;;;;;1.65;1.30;;;12.30;99.90;;;;;;5029483;28;20433;-84
2023/10/31 04:58:25;;;;;;;4.15;1.38;;;12.20;99.90;;;;;;5035296;28;20026;-83
2023/10/31 05:00:50;;;;;;;1.27;1.00;;;12.20;99.90;;;;;;5038345;28;20425;-82
2023/10/31 05:03:16;;;;;;;4.50;1.00;;;12.10;99.90;;;;;;5028057;28;20068;-81
2023/10/31 05:05:41;;;;;;;1.10;1.00;;;12.00;99.90;;;;;;5025521;28;20036;-86
2023/10/31 05:08:10;;;;;;;1.23;1.13;;;11.90;99.90;;;;;;5026825;28;20037;-84
2023/10/31 05:10:36;;;;;;;3.17;0.98;;;11.90;99.90;;;;;;5029139;28;20116;-83
2023/10/31 05:13:14;;;;;;;6.03;0.80;;;11.80;99.90;;;;;;5028360;28;20498;-82
2023/10/31 05:15:40;;;;;;;3.20;1.10;;;11.70;99.90;;;;;;5027605;28;20066;-86
2023/10/31 05:18:05;;;;;;;1.88;0.77;;;11.60;99.90;;;;;;5016099;28;20029;-86
2023/10/31 05:20:31;;;;;;;1.42;0.73;;;11.60;99.90;;;;;;5028424;28;20520;-86
2023/10/31 05:22:57;;;;;;;4.18;0.50;;;11.50;99.90;;;;;;5025342;28;20026;-90
2023/10/31 05:25:22;;;;;;;0.60;0.60;;;11.50;99.90;;;;;;5030876;28;20170;-82
2023/10/31 05:27:49;;;;;;;2.55;0.50;;;11.50;99.90;;;;;;5027862;28;20049;-83
2023/10/31 05:30:21;;;;;;;2.42;0.55;;;11.40;99.90;;;;;;5029371;28;20494;-87
2023/10/31 05:32:46;;;;;;;0.50;0.50;;;11.40;99.90;;;;;;5005816;28;20029;-87
2023/10/31 05:35:12;;;;;;;8.57;1.58;;;11.30;99.90;;;;;;5026992;28;20033;-82
2023/10/31 05:37:38;;;;;;;1.80;0.55;;;11.20;99.90;;;;;;5021851;28;20464;-87
2023/10/31 05:40:04;;;;;;;1.02;0.85;;;11.20;99.90;;;;;;5031631;28;20045;-84
2023/10/31 05:42:30;;;;;;;0.65;0.47;;;11.10;99.90;;;;;;5026030;28;20075;-80
2023/10/31 05:44:56;;;;;;;0.90;0.77;;;11.10;99.90;;;;;;5024020;28;20457;-84
2023/10/31 05:47:22;;;;;;;1.27;0.70;;;11.10;99.90;;;;;;5024909;28;20117;-83
2023/10/31 05:49:48;;;;;;;0.50;0.50;;;11.00;99.90;;;;;;5025419;28;20026;-80
2023/10/31 05:52:13;;;;;;;0.80;0.80;;;11.00;99.90;;;;;;5008052;28;20458;-82
2023/10/31 05:54:40;;;;;;;13.73;0.85;;;11.00;99.90;;;;;;5034524;28;20024;-85
2023/10/31 05:57:05;;;;;;;3.00;0.90;;;10.90;99.90;;;;;;5014134;28;20482;-86
2023/10/31 05:59:32;;;;;;;0.82;0.80;;;10.90;99.90;;;;;;5024823;28;20041;-87
2023/10/31 06:01:58;;;;;;;3.90;0.63;;;10.90;99.90;;;;;;5008149;28;20834;-91
2023/10/31 06:04:24;;;;;;;2.90;0.90;;;10.90;99.90;;;;;;5027907;28;20051;-84
2023/10/31 06:06:50;;;;;;;6.78;1.95;;;10.80;99.90;;;;;;5013784;28;20061;-87
2023/10/31 06:09:16;;;;;;;7.35;0.90;;;10.80;99.90;;;;;;5025364;28;20025;-88
2023/10/31 06:11:43;;;;;;;3.60;0.80;;;10.80;99.90;;;;;;5019639;28;20026;-86
2023/10/31 06:14:09;;;;;;;1.75;0.90;;;10.80;99.90;;;;;;5035847;28;20029;-90
2023/10/31 06:16:43;;;;;;;1.55;0.82;;;10.80;99.90;;;;;;5029305;28;20038;-86
2023/10/31 06:19:09;;;;;;;4.10;0.70;;;10.80;99.90;;;;;;5030006;28;20033;-89
2023/10/31 06:21:35;;;;;;;1.05;0.95;;;10.80;99.90;;;;;;5020911;28;20613;-89
2023/10/31 06:24:02;;;;;;;0.90;0.90;;;10.80;99.90;;;;;;5018030;28;20053;-86
2023/10/31 06:26:28;;;;;;;4.53;0.80;;;10.80;99.90;;;;;;5027367;28;20031;-85
2023/10/31 06:28:56;;;;;;;2.10;0.93;;;10.80;99.90;;;;;;5012429;28;20088;-89
2023/10/31 06:31:23;;;;;;;1.05;0.90;;;10.80;99.90;;;;;;5003638;28;20073;-90
2023/10/31 06:33:49;;;;;;;2.88;0.90;;;10.80;99.90;;;;;;5018133;28;20026;-86
2023/10/31 06:36:15;;;;;;;2.08;0.90;;;10.90;99.90;;;;;;5016290;28;20025;-86
2023/10/31 06:38:40;;;;;;;1.10;0.65;;;10.80;99.90;;;;;;5020517;28;20120;-84
2023/10/31 06:41:06;;;;;;;1.58;1.40;;;10.90;99.90;;;;;;5021688;28;20045;-88
2023/10/31 06:43:32;;;;;;;2.40;0.98;;;10.90;99.90;;;;;;5027029;28;20034;-87
2023/10/31 06:46:00;;;;;;;0.82;0.80;;;10.90;99.90;;;;;;5026597;28;20022;-87
2023/10/31 06:48:26;;;;;;;10.52;1.00;;;10.90;99.90;;;;;;5020161;28;20087;-82
2023/10/31 06:50:54;;;;;;;1.10;0.80;;;10.90;99.90;;;;;;5025396;28;20025;-85
2023/10/31 06:53:19;;;;;;;0.70;0.70;;;10.90;99.90;;;;;;5019450;28;20036;-82
2023/10/31 06:55:45;;;;;;;0.80;0.80;;;10.90;99.90;;;;;;5026028;28;20029;-89
2023/10/31 06:58:11;;;;;;;5.18;0.70;;;10.90;99.90;;;;;;5026309;28;20100;-84
2023/10/31 07:00:37;;;;;;;1.02;1.00;;;11.00;99.90;;;;;;5022640;28;20045;-84
2023/10/31 07:03:08;;;;;;;2.13;0.93;;;11.00;99.90;;;;;;5027349;28;20524;-85
2023/10/31 07:05:35;;;;;;;4.25;0.88;;;11.00;99.90;;;;;;5026700;28;20060;-92
2023/10/31 07:08:00;;;;;;;1.00;0.90;;;11.00;99.90;;;;;;5015830;28;20030;-84
2023/10/31 07:10:26;;;;;;;2.08;1.08;;;11.00;99.90;;;;;;5021819;28;20032;-85
2023/10/31 07:12:51;;;;;;;0.98;0.85;;;11.00;99.90;;;;;;5006852;28;20397;-84
2023/10/31 07:15:17;;;;;;;2.40;0.90;;;11.00;99.90;;;;;;5023466;28;20026;-85
2023/10/31 07:17:42;;;;;;;7.20;0.90;;;11.00;99.90;;;;;;5023040;28;20022;-85
2023/10/31 07:20:08;;;;;;;0.95;0.82;;;11.10;99.90;;;;;;5022916;28;20493;-85
2023/10/31 07:22:37;;;;;;;2.30;1.38;;;11.10;99.90;;;;;;5026146;28;20029;-85
2023/10/31 07:25:03;;;;;;;3.45;1.25;;;11.10;99.90;;;;;;5018257;28;20473;-84
2023/10/31 07:27:29;;;;;;;3.47;1.15;;;11.20;99.90;;;;;;5024249;28;20086;-85
2023/10/31 07:29:55;;;;;;;2.67;1.23;;;11.20;99.90;;;;;;5018944;28;20547;-83
2023/10/31 07:32:20;;;;;;;2.78;1.00;;;11.20;99.90;;;;;;5021807;28;20049;-88
2023/10/31 07:34:46;;;;;;;6.18;0.80;;;11.20;99.90;;;;;;5024465;28;20033;-83
2023/10/31 07:37:12;;;;;;;2.67;1.50;;;11.20;99.90;;;;;;5023918;28;20111;-85
2023/10/31 07:39:38;;;;;;;6.50;1.48;;;11.20;99.90;;;;;;5018834;28;20048;-82
2023/10/31 07:42:04;;;;;;;4.47;1.42;;;11.20;99.90;;;;;;5023666;28;20048;-82
2023/10/31 07:44:30;;;;;;;7.85;2.03;;;11.10;99.90;;;;;;5021130;28;20042;-82
2023/10/31 07:46:55;;;;;;;4.43;1.25;;;11.20;99.90;;;;;;5024241;28;20394;-82
2023/10/31 07:49:21;;;;;;;1.08;0.95;;;11.10;99.90;;;;;;5022144;28;20040;-82
2023/10/31 07:51:48;;;;;;;1.95;1.20;;;11.10;99.90;;;;;;5024727;28;20058;-83
2023/10/31 07:54:15;;;;;;;1.30;1.20;;;11.10;99.90;;;;;;5020903;28;20048;-83
2023/10/31 07:56:41;;;;;;;4.13;1.27;;;11.20;99.90;;;;;;5021487;28;20508;-84
2023/10/31 07:59:07;;;;;;;1.67;1.30;;;11.20;99.90;;;;;;5021641;28;20049;-83
2023/10/31 08:01:34;;;;;;;1.95;1.17;;;11.20;99.90;;;;;;5005014;28;20149;-83
2023/10/31 08:03:59;;;;;;;1.40;0.88;;;11.20;99.90;;;;;;5020364;28;20053;-83
2023/10/31 08:06:25;;;;;;;5.82;1.48;;;11.10;99.90;;;;;;5017781;28;20030;-82
2023/10/31 08:08:51;;;;;;;1.60;1.30;;;11.20;99.90;;;;;;4999703;28;20029;-87
2023/10/31 08:11:16;;;;;;;2.70;1.35;;;11.20;99.90;;;;;;5009396;28;20025;-84
2023/10/31 08:13:42;;;;;;;1.48;1.20;;;11.20;99.90;;;;;;5024117;28;20049;-82
2023/10/31 08:16:08;;;;;;;1.60;1.20;;;11.20;99.90;;;;;;5026841;28;20246;-84
2023/10/31 08:18:34;;;;;;;2.20;1.25;;;11.30;99.90;;;;;;5021972;28;20030;-82
2023/10/31 08:21:00;;;;;;;4.13;1.15;;;11.30;99.90;;;;;;5027107;28;20568;-82
2023/10/31 08:23:28;;;;;;;2.92;1.50;;;11.30;99.90;;;;;;5006619;28;20033;-84
2023/10/31 08:25:54;;;;;;;1.67;1.58;;;11.30;99.90;;;;;;5023680;28;20034;-82
2023/10/31 08:28:20;;;;;;;1.40;1.30;;;11.40;99.90;;;;;;5023932;28;20025;-84
2023/10/31 08:30:46;;;;;;;7.35;1.50;;;11.40;99.90;;;;;;5021734;28;20453;-83
2023/10/31 08:33:12;;;;;;;11.45;1.92;;;11.40;99.90;;;;;;5025541;28;20140;-84
2023/10/31 08:35:38;;;;;;;1.42;1.30;;;11.40;99.90;;;;;;5025980;28;20072;-84
2023/10/31 08:38:03;;;;;;;9.63;1.40;;;11.50;99.90;;;;;;5029881;28;20064;-82
2023/10/31 08:40:29;;;;;;;3.13;1.30;;;11.40;99.90;;;;;;5027023;28;20464;-83
2023/10/31 08:42:55;;;;;;;2.13;1.38;;;11.40;99.90;;;;;;5017774;28;20041;-85
2023/10/31 08:45:21;;;;;;;1.63;1.10;;;11.40;99.90;;;;;;5027412;28;20030;-82
2023/10/31 08:47:46;;;;;;;3.55;1.15;;;11.40;99.90;;;;;;5027135;28;20032;-83
2023/10/31 08:50:13;;;;;;;2.42;1.40;;;11.40;99.90;;;;;;5027245;28;20489;-85
2023/10/31 08:52:39;;;;;;;3.80;1.38;;;11.40;99.90;;;;;;5022546;28;20080;-83
2023/10/31 08:55:06;;;;;;;2.70;1.40;;;11.30;99.90;;;;;;5024870;28;20136;-82
2023/10/31 08:57:33;;;;;;;2.08;1.45;;;11.30;99.90;;;;;;5023116;28;20552;-85
2023/10/31 09:00:04;;;;;;;1.88;1.27;;;11.30;99.90;;;;;;5029129;28;20041;-86
2023/10/31 09:02:30;;;;;;;1.92;1.10;;;11.40;99.90;;;;;;5028189;28;20043;-80
2023/10/31 09:04:56;;;;;;;5.72;1.45;;;11.40;99.90;;;;;;5024180;28;20133;-85
2023/10/31 09:07:21;;;;;;;4.18;1.20;;;11.50;99.90;;;;;;5026861;28;20172;-84
2023/10/31 09:09:47;;;;;;;3.17;1.02;;;11.60;99.90;;;;;;5020061;28;20403;-83
2023/10/31 09:12:12;;;;;;;6.15;1.27;;;11.60;99.90;;;;;;5026738;28;20025;-89
2023/10/31 09:14:39;;;;;;;2.30;1.25;;;11.60;99.90;;;;;;5023291;28;20038;-85
2023/10/31 09:17:04;;;;;;;1.23;0.80;;;11.60;99.90;;;;;;5027722;28;20028;-84
2023/10/31 09:19:30;;;;;;;6.72;0.73;;;11.60;99.90;;;;;;5025590;28;20033;-81
2023/10/31 09:21:56;;;;;;;11.85;0.77;;;11.50;99.90;;;;;;5025179;28;20466;-81
2023/10/31 09:24:21;;;;;;;2.63;0.88;;;11.40;99.90;;;;;;5027260;28;20193;-84
2023/10/31 09:26:47;;;;;;;1.30;0.95;;;11.40;99.90;;;;;;5027032;28;20037;-83
2023/10/31 09:29:15;;;;;;;8.50;1.02;;;11.50;99.90;;;;;;5002622;28;20033;-90
2023/10/31 09:31:41;;;;;;;1.52;0.80;;;11.50;99.90;;;;;;5022552;28;20041;-88
2023/10/31 09:34:07;;;;;;;0.98;0.93;;;11.60;99.90;;;;;;5022912;28;20034;-79
2023/10/31 09:36:34;;;;;;;4.05;1.00;;;11.60;99.90;;;;;;5020990;28;20058;-91
2023/10/31 09:39:00;;;;;;;4.28;1.15;;;11.70;99.90;;;;;;4999699;28;20064;-82
2023/10/31 09:41:26;;;;;;;3.53;1.25;;;11.70;99.90;;;;;;5025015;28;20398;-87
2023/10/31 09:43:53;;;;;;;3.88;0.95;;;11.70;99.90;;;;;;5024630;28;20100;-82
2023/10/31 09:46:18;;;;;;;1.17;0.90;;;11.80;99.90;;;;;;5022654;28;20025;-91
2023/10/31 09:48:44;;;;;;;1.48;0.60;;;11.80;99.90;;;;;;5015759;28;20160;-84
2023/10/31 09:51:11;;;;;;;4.05;1.00;;;11.80;99.90;;;;;;5026062;28;20586;-84
2023/10/31 09:53:40;;;;;;;1.67;1.30;;;11.90;99.90;;;;;;5026734;28;20037;-86
2023/10/31 09:56:07;;;;;;;2.55;0.82;;;11.90;99.90;;;;;;5027738;28;20034;-88
2023/10/31 09:58:33;;;;;;;0.65;0.65;;;11.90;99.90;;;;;;5023978;28;20033;-84
2023/10/31 10:00:58;;;;;;;3.08;0.80;;;11.80;99.90;;;;;;5020338;28;20056;-83
2023/10/31 10:03:24;;;;;;;0.90;0.80;;;11.80;99.90;;;;;;5018730;28;20081;-82
2023/10/31 10:05:50;;;;;;;0.75;0.65;;;11.80;99.90;;;;;;5021784;28;20056;-84
2023/10/31 10:08:16;;;;;;;3.42;0.85;;;11.80;99.90;;;;;;5019612;28;20385;-82
2023/10/31 10:10:42;;;;;;;3.67;0.80;;;11.80;99.90;;;;;;5024470;28;20034;-85
2023/10/31 10:13:08;;;;;;;2.17;0.70;;;11.70;99.90;;;;;;5022909;28;20037;-90
2023/10/31 10:15:54;;;;;;;3.85;0.80;;;11.70;99.90;;;;;;5013973;28;20659;-87
2023/10/31 10:18:40;;;;;;;1.77;0.88;;;11.60;99.90;;;;;;5021655;28;20041;-79
2023/10/31 10:21:08;;;;;;;2.47;0.70;;;11.60;99.90;;;;;;5022864;28;20061;-87
2023/10/31 10:23:33;;;;;;;1.38;0.80;;;11.50;99.90;;;;;;5024776;28;20049;-87
2023/10/31 10:26:00;;;;;;;2.35;0.95;;;11.50;99.90;;;;;;5020190;28;20052;-83
2023/10/31 10:28:26;;;;;;;1.70;0.90;;;11.60;99.90;;;;;;5017157;28;20146;-83
2023/10/31 10:30:54;;;;;;;1.95;0.90;;;11.60;99.90;;;;;;5024032;28;20061;-85
2023/10/31 10:33:21;;;;;;;5.65;1.10;;;11.60;99.90;;;;;;5019955;28;20025;-84
2023/10/31 10:35:47;;;;;;;0.90;0.90;;;11.60;99.90;;;;;;5024636;28;20125;-82
2023/10/31 10:38:14;;;;;;;0.70;0.70;;;11.60;99.90;;;;;;5009314;28;20116;-86
2023/10/31 10:40:42;;;;;;;1.00;0.90;;;11.60;99.90;;;;;;5021710;28;20076;-90
2023/10/31 10:43:15;;;;;;;2.75;0.70;;;11.70;99.90;;;;;;5023963;28;20191;-84
2023/10/31 10:45:46;;;;;;;1.33;0.80;;;11.70;99.90;;;;;;5026324;28;20059;-86
2023/10/31 10:48:13;;;;;;;2.70;1.08;;;11.70;99.90;;;;;;5026231;28;20029;-83
2023/10/31 10:50:42;;;;;;;0.95;0.75;;;11.70;99.90;;;;;;5020386;28;20056;-86
2023/10/31 10:53:27;;;;;;;0.80;0.60;;;11.80;99.90;;;;;;5021210;28;20359;-82
2023/10/31 10:56:00;;;;;;;0.70;0.70;;;11.80;99.90;;;;;;5017040;28;20026;-85
2023/10/31 10:58:44;;;;;;;4.13;0.80;;;11.80;99.90;;;;;;5022454;28;20453;-85
2023/10/31 11:01:10;;;;;;;2.10;1.30;;;11.80;99.90;;;;;;5023456;28;20544;-86
2023/10/31 11:03:37;;;;;;;1.20;0.80;;;11.80;99.90;;;;;;5023549;28;20053;-84
2023/10/31 11:06:04;;;;;;;1.38;0.70;;;11.80;99.90;;;;;;5023145;28;20087;-88
2023/10/31 11:08:30;;;;;;;1.58;0.88;;;11.70;99.90;;;;;;5021018;28;20030;-83
2023/10/31 11:10:57;;;;;;;2.00;0.77;;;11.70;99.90;;;;;;5020905;28;20033;-90
2023/10/31 11:13:24;;;;;;;3.47;0.90;;;11.70;99.90;;;;;;5020903;28;20108;-83
2023/10/31 11:15:55;;;;;;;1.58;1.13;;;11.70;99.90;;;;;;5015817;28;20032;-80
2023/10/31 11:18:21;;;;;;;2.22;0.70;;;11.70;99.90;;;;;;5020341;28;20045;-85
2023/10/31 11:20:47;;;;;;;2.92;1.00;;;11.60;99.90;;;;;;5019983;28;20511;-84
2023/10/31 11:23:13;;;;;;;1.10;1.00;;;11.50;99.90;;;;;;5017772;28;20030;-83
2023/10/31 11:25:50;;;;;;;3.75;0.80;;;11.50;99.90;;;;;;5017329;28;20026;-85
2023/10/31 11:28:17;;;;;;;0.90;0.90;;;11.50;99.90;;;;;;5019950;28;20502;-87
2023/10/31 11:30:45;;;;;;;2.97;0.82;;;11.50;99.90;;;;;;5016296;28;20318;-82
2023/10/31 11:33:15;;;;;;;1.90;0.98;;;11.40;99.90;;;;;;5023131;28;20025;-81
2023/10/31 11:35:44;;;;;;;1.45;1.05;;;11.40;99.90;;;;;;5019201;28;20057;-83
2023/10/31 11:38:11;;;;;;;0.90;0.90;;;11.40;99.90;;;;;;5023790;28;20025;-87
2023/10/31 11:40:49;;;;;;;1.63;1.10;;;11.50;99.90;;;;;;5017483;28;20046;-89
2023/10/31 11:43:15;;;;;;;1.30;1.10;;;11.50;99.90;;;;;;5021624;28;20087;-85
2023/10/31 11:45:44;;;;;;;7.28;1.48;;;11.50;99.90;;;;;;5021006;28;20387;-84
2023/10/31 11:48:10;;;;;;;1.65;1.05;;;11.50;99.90;;;;;;5026834;28;20508;-87
2023/10/31 11:50:37;;;;;;;2.45;0.95;;;11.50;99.90;;;;;;5021020;28;20499;-84
2023/10/31 11:53:06;;;;;;;1.42;0.90;;;11.50;99.90;;;;;;5028935;28;20057;-84
2023/10/31 11:55:35;;;;;;;5.10;1.25;;;11.50;99.90;;;;;;5027082;28;20053;-82
2023/10/31 11:58:25;;;;;;;3.03;1.40;;;11.40;99.90;;;;;;5018083;28;20060;-83
2023/10/31 12:01:05;;;;;;;2.85;1.08;;;11.50;99.90;;;;;;5026809;28;20041;-82
2023/10/31 12:03:47;;;;;;;1.80;1.27;;;11.60;99.90;;;;;;5029328;28;20054;-84
2023/10/31 12:06:13;;;;;;;1.20;1.02;;;11.60;99.90;;;;;;5022780;28;20021;-85
2023/10/31 12:08:43;;;;;;;1.35;1.00;;;11.70;99.90;;;;;;5024011;28;20036;-84
2023/10/31 12:11:20;;;;;;;3.00;1.50;;;11.70;99.90;;;;;;5026180;28;20033;-89
2023/10/31 12:13:56;;;;;;;2.25;1.10;;;11.80;99.90;;;;;;5023448;28;20021;-83
2023/10/31 12:16:32;;;;;;;1.67;1.40;;;11.80;99.90;;;;;;5022791;28;20163;-83
2023/10/31 12:19:00;;;;;;;0.90;0.90;;;11.70;99.90;;;;;;5023156;28;20302;-84
2023/10/31 12:21:42;;;;;;;1.90;1.38;;;11.70;99.90;;;;;;5027487;28;20041;-86
2023/10/31 12:24:11;;;;;;;1.83;1.60;;;11.70;99.90;;;;;;5025334;28;20025;-83
2023/10/31 12:26:37;;;;;;;5.38;1.38;;;11.60;99.90;;;;;;5023650;28;20022;-87
2023/10/31 12:29:13;;;;;;;2.40;1.40;;;11.60;99.90;;;;;;5005820;28;20063;-87
2023/10/31 12:31:53;;;;;;;2.33;1.38;;;11.60;99.90;;;;;;5029768;28;20022;-86
2023/10/31 12:34:20;;;;;;;5.00;1.55;;;11.60;99.90;;;;;;5011218;28;20531;-86
2023/10/31 12:36:48;;;;;;;2.10;1.50;;;11.60;99.90;;;;;;5027207;28;20051;-81
2023/10/31 12:39:16;;;;;;;2.95;1.85;;;11.60;99.90;;;;;;5030484;28;20026;-83
2023/10/31 12:41:46;;;;;;;3.60;1.73;;;11.60;99.90;;;;;;5027874;28;20091;-85
2023/10/31 12:44:17;;;;;;;1.73;1.42;;;11.70;99.90;;;;;;5023384;28;20121;-85